Laval-Ouest, Canada
Current Conditions -  °F | °C
As of 3:00 PM on Monday 22 Dec 2014 (Local Time) from CYUL Reporting Station
Overcast Overcast  
Wind Chill:   Ceiling: 21000
Heat Index: 21°   Visibility: 8mi
Dew Point: 18°   Wind: 17mph
Humidity: 86%   Direction: 40°NE
Pressure: 30.33"   Gusts: NA
Location:  45.55°N, 73.87°W
Report Text: CYUL 222000Z 04015KT 8SM FEW009 FEW030 SCT140 OVC210 M06/M08 A3033 RMK SF1SC1AC2CS4 SLP275
Loading
Personal Weather Stations






























Interactive Weather Map New forecast layout! Learn more

10-Day Weather Forecast

Advertisements
Track Severe Weather on mobile